بیروت, لبنان

10:53 PM EEST on سپتامبر 23, 2017 (GMT +0300)
CoventoRosso | | Change Station

Elev 364 ft 33.85 °N, 35.54 °E | Updated 1 second ago

Partly Cloudy
ابرهاى پراكنده
77.2 °F
Feels Like 79 °F
N
0.0
باد متغير باد from شرق
Gusts 0.0 mph

امروز
High -- | Low -- °F
--% Chance of Precip.
دیروز
High -- | Low -- °F
Precip. -- در
فشار 30.01 در
ديد 6.2 مايل، ميل (در برابر كيلومتر
ابری Few 4000 ft
شاخص گرما 79 °F
قطره شبنم 63 °F
رطوبت 62%
بارش باران 0.00 در
برف عمیق Not available.
6:26 AM 6:33 PM
Waxing Crescent, 13% visible
METAR OLBA 231900Z 15005KT 9999 FEW040 26/16 Q1016 NOSIG
فشار 30.01 در
ديد 6.2 مايل، ميل (در برابر كيلومتر
ابری Few 4000 ft
شاخص گرما 79 °F
قطره شبنم 63 °F
رطوبت 62%
بارش باران 0.00 در
برف عمیق Not available.
6:26 AM 6:33 PM
Waxing Crescent, 13% visible
METAR OLBA 231900Z 15005KT 9999 FEW040 26/16 Q1016 NOSIG

Get Severe Weather Alerts

Thanks for signing up!

Be on the lookout for a verification email in your inbox.

You'll start receiving the daily forecast at 6 AM.

×

10-Day Weather Forecast

No radar image for this location.
×

Almanac

ستاره شناسی

Sep. 23, 2017 Rise Set
وقت حقیقی
تاریک و روشن اجتماعی
تاریک روشن دریایی
شفق و فلق نجومی
ماه
میزان روشنایی روز
طول روز
Tomorrow will be .
, % of the Moon is Illuminated

Today's Extremes

Country Highs Country Lows

Community

WunderPhotos

Category 6

Welcome to Category 6. This is the collective home for Weather Underground's featured writeups by Dr. Jeff Masters (right), Bob Henson (left), Chris Burt, and other regular contributors.

Nearby

تمیزی هوا

  تمیزی هوا AQ Index آلاینده
Not available.

عمق برف

Station Depth Elevation

Earthquake Activity

شهر Distance Mag. Time & Date
Minimum magnitude displayed is 2.5.

Coastal Water Temperatures

منطقه درجه حرارت

Stations

Nearby Weather Stations

Station Location دما باد سرد قطره شبنم رطوبت باد Precip. Elev ارتقا دادن Type